Time;durP1;ratioP1;P1;durP2;ratioP2;P2;SDS_P1;SDS_P2;PMS_P1;PMS_P2;Temp;Humidity;BMP_temperature;BMP_pressure;BME280_temperature;BME280_humidity;BME280_pressure;Samples;Min_cycle;Max_cycle;Signal;HPM_P1;HPM_P2
2022/01/26 00:08:48;;;;;;;;;46.00;35.80;;;;;8.06;54.24;99749.09;6212798;28;98535;-70
2022/01/26 00:11:51;;;;;;;;;44.60;35.60;;;;;8.11;54.09;99739.44;6194358;28;97208;-71
2022/01/26 00:14:56;;;;;;;;;41.25;34.50;;;;;8.07;54.12;99742.66;6196593;28;98282;-70
2022/01/26 00:17:59;;;;;;;;;39.00;33.00;;;;;8.06;54.08;99743.72;6195609;28;99571;-70
2022/01/26 00:21:12;;;;;;;;;42.40;34.40;;;;;7.91;54.59;99732.13;6189245;28;100015;-70
2022/01/26 00:27:50;;;;;;;;;46.20;34.00;;;;;7.92;54.55;99736.47;6199589;28;96974;-71
2022/01/26 00:41:05;;;;;;;;;43.00;34.00;;;;;7.97;54.54;99739.44;6188343;28;99605;-70
2022/01/26 00:44:09;;;;;;;;;44.20;34.20;;;;;7.93;54.51;99741.66;6215055;28;96473;-70
2022/01/26 00:47:15;;;;;;;;;45.60;35.00;;;;;7.90;54.84;99750.09;6213475;28;98730;-70
2022/01/26 00:50:19;;;;;;;;;43.40;33.00;;;;;7.96;54.53;99752.03;6209331;28;97111;-73
2022/01/26 00:53:29;;;;;;;;;40.40;34.00;;;;;8.05;54.23;99747.41;6214280;28;97716;-71
2022/01/26 00:56:33;;;;;;;;;42.40;33.60;;;;;8.12;54.08;99748.31;6212819;28;100266;-71
2022/01/26 00:59:37;;;;;;;;;42.00;32.00;;;;;8.13;53.84;99748.16;6212275;28;96786;-70
2022/01/26 01:02:42;;;;;;;;;42.50;31.50;;;;;8.10;54.05;99743.16;6204416;28;98835;-70
2022/01/26 01:05:52;;;;;;;;;36.60;31.00;;;;;8.15;53.98;99743.44;6189784;28;96967;-70
2022/01/26 01:08:57;;;;;;;;;36.33;32.00;;;;;8.11;53.91;99741.31;6188126;28;97041;-73
2022/01/26 01:12:02;;;;;;;;;40.60;32.00;;;;;8.14;53.87;99738.25;6189961;28;96555;-70
2022/01/26 01:15:09;;;;;;;;;37.50;32.00;;;;;8.10;54.07;99743.16;6213635;28;97435;-72
2022/01/26 01:18:20;;;;;;;;;40.60;33.00;;;;;8.18;53.79;99736.84;6205020;28;96833;-70
2022/01/26 01:28:27;;;;;;;;;39.50;33.00;;;;;7.95;54.37;99731.56;6190160;28;97223;-71
2022/01/26 01:31:42;;;;;;;;;45.00;35.00;;;;;7.96;54.36;99724.34;6189275;28;96786;-71
2022/01/26 01:34:47;;;;;;;;;41.00;33.00;;;;;7.92;54.41;99734.59;6189874;28;96831;-71
2022/01/26 01:37:50;;;;;;;;;41.80;33.00;;;;;7.92;54.45;99723.03;6202722;28;97425;-73
2022/01/26 01:40:53;;;;;;;;;44.60;32.20;;;;;7.87;54.57;99714.72;6212238;28;98782;-71
2022/01/26 01:43:57;;;;;;;;;44.40;34.00;;;;;7.70;55.06;99720.25;6213797;28;96404;-69
2022/01/26 01:47:00;;;;;;;;;36.00;32.00;;;;;7.83;54.72;99725.81;6214764;28;96489;-69
2022/01/26 01:50:10;;;;;;;;;35.00;30.00;;;;;7.84;54.71;99729.34;6212086;28;96876;-71
2022/01/26 01:53:17;;;;;;;;;38.60;33.00;;;;;7.77;54.90;99726.53;6177893;28;98291;-70
2022/01/26 01:56:23;;;;;;;;;36.60;30.00;;;;;7.76;54.84;99719.53;6187845;28;96523;-72
2022/01/26 01:59:29;;;;;;;;;34.50;30.00;;;;;7.62;55.25;99720.34;6196187;28;96395;-72
2022/01/26 02:02:32;;;;;;;;;31.00;29.50;;;;;7.73;54.95;99711.81;6189544;28;97534;-69
2022/01/26 02:05:37;;;;;;;;;41.00;32.00;;;;;7.80;54.81;99712.78;6213283;28;96995;-70
2022/01/26 02:08:41;;;;;;;;;36.25;32.00;;;;;7.75;54.74;99701.75;6212332;28;96507;-71
2022/01/26 02:11:48;;;;;;;;;36.40;31.00;;;;;7.82;54.69;99715.25;6209543;28;97525;-70
2022/01/26 02:15:02;;;;;;;;;34.00;30.00;;;;;7.82;54.67;99708.03;6211061;28;98318;-69
2022/01/26 02:18:25;;;;;;;;;35.60;31.60;;;;;7.81;54.73;99710.91;6213866;28;96509;-69
2022/01/26 02:51:57;;;;;;;;;36.50;30.00;;;;;7.65;55.21;99689.59;6194516;28;96842;-68
2022/01/26 02:55:18;;;;;;;;;33.60;29.00;;;;;7.57;55.47;99687.84;6184253;28;99028;-72
2022/01/26 03:01:52;;;;;;;;;28.80;27.00;;;;;7.58;55.74;99696.72;6192289;28;98483;-69
2022/01/26 03:04:58;;;;;;;;;33.00;28.40;;;;;7.70;55.30;99700.63;6212014;28;96266;-72
2022/01/26 03:08:05;;;;;;;;;36.75;30.00;;;;;7.79;55.05;99696.84;6194127;28;96494;-71
2022/01/26 03:11:13;;;;;;;;;34.00;30.00;;;;;7.87;54.81;99691.38;6203038;28;96631;-68
2022/01/26 03:14:25;;;;;;;;;34.40;30.00;;;;;7.84;54.83;99679.16;6204588;28;96625;-68
2022/01/26 03:17:44;;;;;;;;;37.00;30.40;;;;;7.75;55.02;99682.97;6197843;28;97089;-69
2022/01/26 03:20:49;;;;;;;;;34.00;28.60;;;;;7.79;55.05;99686.09;6187059;28;97835;-71
2022/01/26 03:31:05;;;;;;;;;37.00;29.60;;;;;7.94;54.62;99684.25;6203761;28;98151;-72
2022/01/26 03:34:11;;;;;;;;;34.00;30.00;;;;;7.74;55.13;99686.66;6194043;28;97459;-68
2022/01/26 03:37:14;;;;;;;;;30.60;25.00;;;;;7.65;55.39;99689.59;6188604;28;96712;-71
2022/01/26 03:40:18;;;;;;;;;30.00;25.60;;;;;7.60;55.39;99667.84;6186901;28;97837;-68
2022/01/26 03:43:23;;;;;;;;;29.75;25.00;;;;;7.75;54.95;99682.13;6189564;28;97215;-70
2022/01/26 03:46:26;;;;;;;;;29.60;27.00;;;;;7.79;55.10;99676.19;6191644;28;97594;-70
2022/01/26 03:49:32;;;;;;;;;31.40;28.60;;;;;7.81;55.06;99667.97;6215132;28;97413;-69
2022/01/26 03:52:36;;;;;;;;;31.00;26.60;;;;;7.88;54.86;99666.19;6215699;28;96875;-70
2022/01/26 03:55:39;;;;;;;;;32.40;27.60;;;;;7.82;54.99;99673.13;6214639;28;97884;-69
2022/01/26 03:58:44;;;;;;;;;32.25;28.25;;;;;7.84;54.99;99670.28;6214438;28;97194;-69
2022/01/26 04:01:47;;;;;;;;;33.00;29.40;;;;;7.88;54.92;99673.41;6204895;28;97736;-70
2022/01/26 04:04:56;;;;;;;;;28.20;24.60;;;;;7.80;55.09;99677.88;6212368;28;98881;-72
2022/01/26 04:08:05;;;;;;;;;33.00;28.80;;;;;7.74;54.69;99664.34;6206526;28;97494;-68
2022/01/26 04:11:24;;;;;;;;;29.00;25.50;;;;;7.77;55.03;99674.72;6209978;28;96660;-71
2022/01/26 04:14:32;;;;;;;;;30.75;25.00;;;;;7.86;54.85;99664.72;6211789;28;98820;-72
2022/01/26 04:17:36;;;;;;;;;30.40;25.80;;;;;7.86;54.81;99665.56;6173515;28;97814;-68
2022/01/26 04:20:44;;;;;;;;;34.00;30.00;;;;;7.86;54.85;99668.25;6190536;28;96527;-69
2022/01/26 04:23:51;;;;;;;;;34.00;29.40;;;;;7.81;54.97;99671.50;6215075;28;97519;-72
2022/01/26 04:26:59;;;;;;;;;34.60;28.00;;;;;7.80;54.88;99664.44;6212282;28;96549;-72
2022/01/26 04:30:05;;;;;;;;;31.60;27.00;;;;;7.75;55.27;99666.03;6191437;28;96456;-69
2022/01/26 04:33:09;;;;;;;;;33.40;28.00;;;;;7.78;55.15;99666.47;6194268;28;98223;-72
2022/01/26 04:36:16;;;;;;;;;35.60;29.60;;;;;7.69;55.19;99672.13;6205444;28;97291;-73
2022/01/26 04:39:28;;;;;;;;;35.00;30.00;;;;;7.69;55.33;99669.44;6210240;28;98780;-71
2022/01/26 04:42:34;;;;;;;;;31.40;26.80;;;;;7.72;55.31;99674.44;6193528;28;97181;-69
2022/01/26 04:45:39;;;;;;;;;31.80;28.00;;;;;7.75;55.29;99674.06;6204996;28;96506;-71
2022/01/26 04:48:42;;;;;;;;;32.60;28.00;;;;;7.60;55.33;99644.53;6189595;28;96837;-72
2022/01/26 04:51:46;;;;;;;;;39.00;30.00;;;;;7.76;55.26;99659.63;6189662;28;96486;-71
2022/01/26 04:54:49;;;;;;;;;39.40;31.60;;;;;7.72;55.57;99663.72;6188041;28;97834;-70
2022/01/26 04:57:53;;;;;;;;;35.60;30.00;;;;;7.60;55.58;99662.50;6213957;28;97389;-73
2022/01/26 05:00:57;;;;;;;;;35.00;30.00;;;;;7.58;55.35;99669.88;6210186;28;97011;-70
2022/01/26 05:04:01;;;;;;;;;43.00;32.20;;;;;7.47;55.95;99663.13;6194602;28;97429;-71
2022/01/26 05:07:04;;;;;;;;;35.80;30.60;;;;;7.48;55.93;99659.41;6188685;28;97189;-69
2022/01/26 05:10:08;;;;;;;;;32.60;29.60;;;;;7.27;56.11;99653.94;6188555;28;96984;-69
2022/01/26 05:13:14;;;;;;;;;33.20;28.60;;;;;7.17;56.36;99648.81;6204363;28;97088;-71
2022/01/26 05:16:19;;;;;;;;;31.00;28.00;;;;;7.19;56.59;99656.66;6190161;28;96794;-72
2022/01/26 05:19:22;;;;;;;;;32.00;29.00;;;;;7.06;56.75;99651.94;6195477;28;97334;-73
2022/01/26 05:22:26;;;;;;;;;38.20;30.00;;;;;6.95;57.12;99638.94;6205185;28;96504;-73
2022/01/26 05:25:30;;;;;;;;;34.60;30.00;;;;;6.86;57.49;99632.00;6194008;28;97209;-70
2022/01/26 05:28:33;;;;;;;;;35.60;30.00;;;;;6.88;57.40;99638.00;6192819;28;97878;-71
2022/01/26 05:31:38;;;;;;;;;30.80;28.20;;;;;6.96;57.16;99638.78;6209359;28;98307;-69
2022/01/26 05:34:41;;;;;;;;;35.80;29.80;;;;;6.98;57.18;99643.97;6201424;28;97488;-71
2022/01/26 05:37:44;;;;;;;;;35.40;30.20;;;;;7.00;57.11;99654.50;6187293;28;98201;-69
2022/01/26 05:40:50;;;;;;;;;34.60;30.00;;;;;6.99;57.37;99640.25;6202134;28;96866;-70
2022/01/26 05:43:53;;;;;;;;;37.60;31.60;;;;;7.01;57.40;99624.81;6195681;28;98387;-69
2022/01/26 05:46:58;;;;;;;;;39.60;30.80;;;;;6.91;57.36;99618.88;6203386;28;97090;-69
2022/01/26 05:50:02;;;;;;;;;36.60;29.60;;;;;7.01;57.59;99632.03;6205014;28;96392;-70
2022/01/26 05:53:05;;;;;;;;;36.00;30.00;;;;;7.16;57.09;99641.78;6195210;28;98109;-72
2022/01/26 05:56:09;;;;;;;;;36.20;31.00;;;;;7.00;57.13;99607.06;6205256;28;97481;-73
2022/01/26 05:59:16;;;;;;;;;37.40;31.00;;;;;7.29;56.86;99647.34;6195413;28;99295;-70
2022/01/26 06:02:20;;;;;;;;;34.80;29.20;;;;;7.33;56.77;99642.47;6207533;28;96788;-70
2022/01/26 06:05:24;;;;;;;;;37.00;31.40;;;;;7.40;56.68;99648.78;6208079;28;98553;-70
2022/01/26 06:08:28;;;;;;;;;38.00;31.80;;;;;7.56;56.26;99650.47;6191728;28;96680;-69
2022/01/26 06:11:31;;;;;;;;;37.60;32.00;;;;;7.62;55.95;99645.19;6187147;28;96821;-70
2022/01/26 06:14:35;;;;;;;;;36.40;31.00;;;;;7.70;55.74;99644.25;6213466;28;97546;-69
2022/01/26 06:17:40;;;;;;;;;35.00;32.00;;;;;7.78;55.37;99639.63;6202911;28;97516;-69
2022/01/26 06:20:43;;;;;;;;;38.25;30.00;;;;;7.73;55.38;99642.03;6201837;28;98809;-72
2022/01/26 06:23:47;;;;;;;;;34.00;28.00;;;;;7.53;55.15;99600.66;6209461;28;97472;-72
2022/01/26 06:26:50;;;;;;;;;32.75;28.00;;;;;7.72;55.23;99642.25;6209397;28;97866;-70
2022/01/26 06:29:53;;;;;;;;;34.50;28.00;;;;;7.71;55.23;99638.72;6200887;28;96925;-72
2022/01/26 06:32:58;;;;;;;;;38.00;30.00;;;;;7.68;55.37;99633.69;6195545;28;96569;-72
2022/01/26 06:36:01;;;;;;;;;36.00;32.00;;;;;7.71;54.96;99632.53;6197339;28;97466;-71
2022/01/26 06:39:05;;;;;;;;;40.40;32.00;;;;;7.75;55.28;99639.19;6201038;28;97078;-72
2022/01/26 06:42:13;;;;;;;;;33.60;28.00;;;;;7.79;55.02;99633.25;6190632;28;96894;-72
2022/01/26 06:45:19;;;;;;;;;37.60;29.80;;;;;7.71;55.14;99633.34;6189797;28;98592;-72
2022/01/26 06:48:44;;;;;;;;;37.80;30.40;;;;;7.83;54.98;99636.38;6207242;28;96870;-72
2022/01/26 06:51:47;;;;;;;;;33.40;30.00;;;;;7.75;55.22;99628.44;6187132;28;99791;-71
2022/01/26 06:54:51;;;;;;;;;36.00;30.00;;;;;7.78;55.10;99631.56;6206891;28;97494;-69
2022/01/26 06:57:54;;;;;;;;;35.00;30.00;;;;;7.91;55.05;99633.63;6211010;28;97800;-69
2022/01/26 07:00:58;;;;;;;;;38.00;30.60;;;;;7.87;55.01;99639.56;6205683;28;97762;-71
2022/01/26 07:04:05;;;;;;;;;38.40;30.00;;;;;7.74;55.32;99637.50;6205511;28;97105;-74
2022/01/26 07:07:08;;;;;;;;;38.75;30.75;;;;;7.81;55.13;99630.38;6204410;28;96512;-72
2022/01/26 07:10:12;;;;;;;;;38.80;32.00;;;;;7.70;55.37;99630.84;6203236;28;98013;-68
2022/01/26 07:13:16;;;;;;;;;37.00;30.00;;;;;7.74;55.45;99630.28;6206460;28;97941;-71
2022/01/26 07:19:53;;;;;;;;;41.00;32.00;;;;;7.86;55.23;99632.50;6207263;28;97928;-72
2022/01/26 07:22:56;;;;;;;;;39.00;30.40;;;;;7.95;55.02;99626.03;6178692;28;99215;-70
2022/01/26 07:25:59;;;;;;;;;34.75;30.00;;;;;7.91;55.06;99622.03;6214268;28;96830;-67
2022/01/26 07:29:08;;;;;;;;;40.50;31.00;;;;;7.91;55.06;99633.63;6215552;28;96730;-66
2022/01/26 07:32:11;;;;;;;;;39.40;31.40;;;;;7.89;54.83;99605.28;6209322;28;97760;-71
2022/01/26 07:35:16;;;;;;;;;39.40;32.00;;;;;7.98;54.91;99631.00;6215436;28;98056;-72
2022/01/26 07:38:19;;;;;;;;;40.00;30.80;;;;;8.03;54.77;99628.59;6212587;28;99628;-69
2022/01/26 07:41:23;;;;;;;;;33.60;30.00;;;;;8.01;54.79;99626.13;6211299;28;98616;-70
2022/01/26 07:44:26;;;;;;;;;42.00;33.67;;;;;8.04;54.86;99628.41;6216895;28;97184;-67
2022/01/26 07:47:31;;;;;;;;;38.00;31.00;;;;;8.02;54.98;99635.81;6216892;28;98155;-69
2022/01/26 07:50:36;;;;;;;;;38.40;30.60;;;;;8.07;54.75;99636.09;6198947;28;97015;-65
2022/01/26 07:53:39;;;;;;;;;36.00;31.00;;;;;8.23;54.58;99635.03;6213374;28;98879;-69
2022/01/26 07:56:43;;;;;;;;;37.60;31.60;;;;;8.22;54.43;99641.44;6204297;28;96770;-68
2022/01/26 07:59:47;;;;;;;;;37.20;29.00;;;;;8.25;54.29;99633.03;6184822;28;97816;-69
2022/01/26 08:02:50;;;;;;;;;37.00;31.00;;;;;8.30;54.19;99637.84;6212272;28;98596;-68
2022/01/26 08:05:56;;;;;;;;;38.00;30.00;;;;;8.31;54.27;99632.28;6213943;28;97404;-69
2022/01/26 08:08:59;;;;;;;;;38.00;31.00;;;;;8.29;54.07;99623.56;6214405;28;96577;-65
2022/01/26 08:12:03;;;;;;;;;37.75;32.00;;;;;8.22;54.21;99610.03;6211915;28;97492;-68
2022/01/26 08:15:08;;;;;;;;;35.00;30.00;;;;;8.32;54.15;99625.03;6213165;28;98434;-67
2022/01/26 08:18:12;;;;;;;;;39.20;31.00;;;;;8.20;53.91;99598.66;6181693;28;97709;-69
2022/01/26 08:21:18;;;;;;;;;32.67;30.00;;;;;8.36;53.87;99626.31;6214378;28;97142;-68
2022/01/26 08:24:22;;;;;;;;;34.00;30.00;;;;;8.42;53.81;99622.88;6214545;28;97244;-72
2022/01/26 08:27:28;;;;;;;;;35.00;30.00;;;;;8.46;53.71;99625.00;6230830;28;97617;-72
2022/01/26 08:30:35;;;;;;;;;34.20;28.60;;;;;8.40;53.75;99625.78;6208926;28;98849;-69
2022/01/26 08:33:39;;;;;;;;;34.50;30.00;;;;;8.38;53.78;99618.94;6204638;28;97371;-73
2022/01/26 08:36:43;;;;;;;;;31.60;29.00;;;;;8.20;54.12;99601.34;6208645;28;98026;-72
2022/01/26 08:39:47;;;;;;;;;37.00;30.40;;;;;8.37;53.80;99628.00;6205726;28;97333;-72
2022/01/26 08:42:51;;;;;;;;;33.75;29.25;;;;;8.34;54.03;99629.22;6204210;28;96738;-74
2022/01/26 08:45:57;;;;;;;;;32.60;28.60;;;;;8.39;53.74;99634.03;6205929;28;96787;-73
2022/01/26 08:49:01;;;;;;;;;36.00;30.00;;;;;8.44;53.70;99631.59;6206813;28;96546;-71
2022/01/26 08:52:06;;;;;;;;;33.00;30.00;;;;;8.46;53.68;99643.81;6196812;28;99798;-72
2022/01/26 08:55:10;;;;;;;;;30.60;29.00;;;;;8.42;53.53;99637.16;6208170;28;96900;-71
2022/01/26 08:58:13;;;;;;;;;31.60;27.40;;;;;8.58;53.38;99642.31;6202740;28;97206;-72
2022/01/26 09:01:16;;;;;;;;;33.60;29.60;;;;;8.53;53.40;99639.38;6195350;28;97617;-73
2022/01/26 09:04:20;;;;;;;;;32.00;28.00;;;;;8.33;53.45;99602.53;6210831;28;96440;-70
2022/01/26 09:07:25;;;;;;;;;34.20;28.60;;;;;8.57;53.54;99646.00;6212329;28;97463;-73
2022/01/26 09:10:30;;;;;;;;;35.60;29.60;;;;;8.73;53.23;99652.19;6209702;28;98258;-70
2022/01/26 09:13:35;;;;;;;;;34.00;27.60;;;;;8.78;52.90;99649.75;6208865;28;96649;-72
2022/01/26 09:16:38;;;;;;;;;36.60;31.00;;;;;8.81;52.91;99663.63;6212673;28;96485;-74
2022/01/26 09:19:43;;;;;;;;;33.00;27.00;;;;;8.72;52.81;99655.88;6202857;28;97422;-71
2022/01/26 09:22:48;;;;;;;;;31.50;27.50;;;;;8.69;53.16;99649.03;6211092;28;96619;-66
2022/01/26 09:25:51;;;;;;;;;32.40;29.40;;;;;8.74;53.13;99656.53;6211684;28;96519;-69
2022/01/26 09:28:54;;;;;;;;;29.40;27.60;;;;;8.83;53.13;99650.00;6211038;28;97899;-72
2022/01/26 09:31:58;;;;;;;;;34.40;30.00;;;;;8.93;52.91;99654.03;6212258;28;97445;-68
2022/01/26 09:35:01;;;;;;;;;32.00;28.80;;;;;8.95;52.69;99654.66;6194074;28;96618;-67
2022/01/26 09:38:06;;;;;;;;;30.00;27.40;;;;;9.03;52.54;99654.56;6210753;28;97076;-72
2022/01/26 09:41:09;;;;;;;;;33.00;28.00;;;;;8.95;52.77;99661.91;6207913;28;99609;-71
2022/01/26 09:44:14;;;;;;;;;34.40;30.00;;;;;8.93;52.32;99669.34;6184913;28;96648;-67
2022/01/26 09:47:17;;;;;;;;;33.80;30.00;;;;;8.99;52.65;99655.13;6193946;28;96629;-70
2022/01/26 09:50:21;;;;;;;;;35.00;30.00;;;;;8.97;52.77;99652.63;6209558;28;98692;-67
2022/01/26 09:53:29;;;;;;;;;36.60;30.00;;;;;9.06;52.72;99654.16;6210261;28;97162;-67
2022/01/26 09:56:33;;;;;;;;;36.00;31.50;;;;;9.03;52.46;99649.19;6201746;28;97432;-70
2022/01/26 09:59:39;;;;;;;;;36.40;31.00;;;;;9.15;52.30;99646.78;6204709;28;97362;-71
2022/01/26 10:02:43;;;;;;;;;38.00;31.75;;;;;9.07;52.19;99652.31;6205633;28;97875;-71
2022/01/26 10:05:49;;;;;;;;;38.40;33.00;;;;;9.16;52.29;99648.44;6209016;28;99200;-65
2022/01/26 10:09:03;;;;;;;;;39.40;33.00;;;;;9.18;52.14;99650.94;6188708;28;98458;-68
2022/01/26 10:15:34;;;;;;;;;43.00;34.40;;;;;8.99;52.07;99629.03;6208125;28;97524;-71
2022/01/26 10:18:37;;;;;;;;;38.50;33.00;;;;;9.07;52.29;99642.38;6203428;28;97410;-68
2022/01/26 10:21:47;;;;;;;;;34.60;30.00;;;;;8.97;52.46;99636.50;6206966;28;96617;-71
2022/01/26 10:25:03;;;;;;;;;42.00;32.00;;;;;8.95;52.37;99633.16;6209068;28;96784;-71
2022/01/26 10:28:26;;;;;;;;;41.00;32.00;;;;;8.95;52.52;99632.31;6206302;28;97399;-70
2022/01/26 10:31:33;;;;;;;;;42.00;32.00;;;;;8.92;52.73;99630.84;6207173;28;98611;-69
2022/01/26 10:34:44;;;;;;;;;40.50;33.00;;;;;8.75;52.84;99613.31;6205255;28;96871;-71
2022/01/26 10:37:52;;;;;;;;;43.20;33.00;;;;;8.88;52.94;99623.38;6194313;28;97160;-73
2022/01/26 10:40:59;;;;;;;;;43.80;33.00;;;;;8.88;52.89;99623.38;6188449;28;97205;-72
2022/01/26 10:44:03;;;;;;;;;40.40;32.60;;;;;8.88;53.09;99620.69;6216863;28;97023;-72
2022/01/26 10:47:09;;;;;;;;;41.60;32.80;;;;;8.92;54.67;99617.41;6209127;28;98761;-69
2022/01/26 10:50:48;;;;;;;;;36.00;32.00;;;;;8.83;55.03;99602.44;6208480;28;96749;-69
2022/01/26 10:53:59;;;;;;;;;44.00;33.40;;;;;9.00;54.12;99609.19;6208920;28;97456;-66
2022/01/26 10:57:04;;;;;;;;;42.00;34.00;;;;;9.05;54.14;99595.16;6207865;28;97070;-70
2022/01/26 11:00:09;;;;;;;;;40.50;32.00;;;;;9.07;53.59;99603.88;6204220;28;96709;-67
2022/01/26 11:03:12;;;;;;;;;38.75;32.25;;;;;8.93;52.87;99580.59;6222693;27;97399;-70
2022/01/26 11:06:20;;;;;;;;;43.00;33.00;;;;;8.95;53.01;99594.66;6204868;28;97516;-70
2022/01/26 11:09:27;;;;;;;;;38.60;32.40;;;;;8.74;53.11;99560.59;6196768;28;96474;-69
2022/01/26 11:12:33;;;;;;;;;43.00;33.40;;;;;8.80;53.38;99584.00;6204068;28;96802;-70
2022/01/26 11:15:38;;;;;;;;;38.60;33.00;;;;;8.68;53.66;99583.69;6196002;28;97762;-68
2022/01/26 11:18:47;;;;;;;;;38.60;32.00;;;;;8.66;53.75;99592.97;6215508;28;97339;-67
2022/01/26 11:21:50;;;;;;;;;40.00;32.40;;;;;8.69;53.77;99581.84;6205338;28;97464;-67
2022/01/26 11:25:13;;;;;;;;;38.50;32.25;;;;;8.68;53.85;99591.75;6207632;28;97151;-65
2022/01/26 11:28:21;;;;;;;;;43.50;33.75;;;;;8.62;53.85;99586.31;6202895;28;97442;-68
2022/01/26 11:31:25;;;;;;;;;39.40;32.20;;;;;8.57;54.34;99580.69;6207923;28;96563;-70
2022/01/26 11:34:51;;;;;;;;;40.40;33.00;;;;;8.40;54.63;99585.50;6209798;28;96497;-70
2022/01/26 11:38:07;;;;;;;;;46.00;34.00;;;;;8.53;54.57;99574.84;6203082;28;96592;-69
2022/01/26 11:48:22;;;;;;;;;46.00;34.00;;;;;8.56;54.51;99569.09;6096674;28;99411;-69
2022/01/26 11:51:25;;;;;;;;;38.60;32.00;;;;;8.59;54.70;99568.72;6108004;28;97251;-66
2022/01/26 11:54:41;;;;;;;;;43.60;33.00;;;;;8.49;54.75;99565.53;6089528;28;97938;-68
2022/01/26 11:57:50;;;;;;;;;42.80;33.00;;;;;8.41;55.12;99557.56;6091740;28;97243;-70
2022/01/26 12:01:12;;;;;;;;;44.25;33.50;;;;;8.37;55.24;99558.97;6103938;28;97089;-70
2022/01/26 12:04:17;;;;;;;;;43.60;35.00;;;;;8.37;54.94;99558.16;6081539;28;97221;-69
2022/01/26 12:07:22;;;;;;;;;44.80;34.60;;;;;8.40;55.07;99553.25;6066826;28;97303;-67
2022/01/26 12:10:28;;;;;;;;;42.40;33.00;;;;;8.42;55.10;99553.03;6098364;28;96817;-68
2022/01/26 12:13:33;;;;;;;;;44.40;33.40;;;;;8.46;54.97;99543.56;6103891;28;96791;-68
2022/01/26 12:16:41;;;;;;;;;44.60;32.80;;;;;8.37;55.06;99542.03;6093334;28;97415;-69
2022/01/26 12:19:53;;;;;;;;;45.40;35.00;;;;;8.21;55.62;99543.06;6094782;28;98090;-69
2022/01/26 12:36:39;;;;;;;;;36.40;32.00;;;;;8.27;55.31;99531.56;6204948;28;97201;-69
2022/01/26 12:43:14;;;;;;;;;42.20;35.00;;;;;8.47;54.99;99535.31;6207126;28;97969;-69
2022/01/26 12:46:33;;;;;;;;;39.80;33.00;;;;;8.55;54.74;99526.31;6195314;28;96816;-70
2022/01/26 12:49:38;;;;;;;;;38.00;32.00;;;;;8.57;54.48;99529.59;6211410;28;97448;-68
2022/01/26 12:52:45;;;;;;;;;38.50;34.00;;;;;8.49;54.83;99524.38;6210092;28;98144;-71
2022/01/26 12:55:55;;;;;;;;;41.60;34.00;;;;;8.56;54.48;99528.78;6210006;28;96631;-69
2022/01/26 12:59:03;;;;;;;;;39.00;32.20;;;;;8.61;54.28;99515.59;6201818;28;97675;-68
2022/01/26 13:02:06;;;;;;;;;43.50;36.00;;;;;8.64;54.16;99519.75;6200634;28;97191;-69
2022/01/26 13:05:14;;;;;;;;;40.60;33.60;;;;;8.45;54.53;99520.41;6193420;28;96873;-68
2022/01/26 13:08:17;;;;;;;;;41.40;34.00;;;;;8.44;54.58;99508.84;6194397;28;97693;-68
2022/01/26 13:11:29;;;;;;;;;38.60;33.60;;;;;8.42;54.79;99508.19;6211833;28;97487;-67
2022/01/26 13:14:39;;;;;;;;;43.50;34.75;;;;;8.49;54.67;99505.56;6198272;28;97217;-69
2022/01/26 13:17:47;;;;;;;;;42.20;33.00;;;;;8.51;54.65;99512.41;6193490;28;96525;-68
2022/01/26 13:24:31;;;;;;;;;42.00;32.60;;;;;8.38;54.79;99504.22;6187593;28;99318;-70
2022/01/26 13:27:48;;;;;;;;;42.00;35.00;;;;;8.43;54.76;99512.53;6187350;28;98018;-68
2022/01/26 13:31:15;;;;;;;;;41.80;33.80;;;;;8.33;54.81;99508.50;6179747;28;96612;-70
2022/01/26 13:38:12;;;;;;;;;43.00;33.00;;;;;8.27;55.01;99492.09;6144951;28;97263;-69
2022/01/26 13:41:31;;;;;;;;;42.20;33.00;;;;;8.27;55.08;99496.63;6151434;28;97885;-70
2022/01/26 13:44:52;;;;;;;;;45.00;34.00;;;;;8.34;54.91;99494.88;6150364;28;97356;-68
2022/01/26 13:51:20;;;;;;;;;43.20;34.80;;;;;8.39;54.68;99503.22;6140480;28;97701;-70
2022/01/26 13:58:06;;;;;;;;;41.00;34.00;;;;;8.26;55.13;99506.56;6152767;28;97549;-69
2022/01/26 14:01:16;;;;;;;;;40.40;33.00;;;;;8.22;55.27;99507.13;6138362;28;97761;-69
2022/01/26 14:04:21;;;;;;;;;42.40;33.40;;;;;8.33;55.02;99501.28;6137202;28;98349;-70
2022/01/26 14:07:24;;;;;;;;;38.40;31.60;;;;;8.42;54.72;99500.13;6155352;28;97228;-70
2022/01/26 14:10:29;;;;;;;;;38.00;33.00;;;;;8.29;54.96;99508.03;6137799;28;96865;-69
2022/01/26 14:13:35;;;;;;;;;37.00;30.60;;;;;8.37;54.76;99501.72;6207599;28;97128;-70
2022/01/26 14:16:43;;;;;;;;;37.40;32.00;;;;;8.39;54.80;99503.22;6207725;28;97606;-72
2022/01/26 14:20:11;;;;;;;;;37.40;31.00;;;;;8.40;54.92;99510.25;6203307;28;97062;-71
2022/01/26 14:23:31;;;;;;;;;38.00;32.00;;;;;8.34;54.93;99516.38;6202584;28;98388;-70
2022/01/26 14:26:38;;;;;;;;;32.20;29.20;;;;;8.37;54.80;99509.78;6203114;28;97042;-70
2022/01/26 14:29:58;;;;;;;;;37.60;33.60;;;;;8.40;54.76;99504.88;6202939;28;97417;-69
2022/01/26 14:36:43;;;;;;;;;37.40;32.00;;;;;8.30;54.96;99500.84;6197084;28;97016;-68
2022/01/26 15:30:24;;;;;;;;;35.40;30.00;;;;;7.99;55.85;99498.41;6209203;28;97336;-71
2022/01/26 15:33:51;;;;;;;;;31.75;29.50;;;;;8.03;55.48;99500.53;6208303;28;96768;-70
2022/01/26 15:40:22;;;;;;;;;28.40;27.20;;;;;7.74;56.00;99498.75;6211786;28;96463;-71
2022/01/26 15:43:44;;;;;;;;;28.60;27.00;;;;;7.86;55.93;99511.72;6198429;28;99943;-71
2022/01/26 15:50:23;;;;;;;;;31.00;27.40;;;;;7.81;56.06;99505.06;6215118;28;97513;-71
2022/01/26 16:07:01;;;;;;;;;30.00;27.00;;;;;7.85;55.79;99524.28;6197573;28;97487;-71
2022/01/26 16:17:10;;;;;;;;;32.00;29.80;;;;;7.86;55.92;99535.88;6224266;28;97078;-71
2022/01/26 16:20:42;;;;;;;;;34.00;29.80;;;;;7.57;55.64;99472.34;6200110;28;98140;-70
2022/01/26 16:28:05;;;;;;;;;36.60;29.00;;;;;8.03;55.45;99537.28;6205950;28;96831;-70
2022/01/26 16:37:59;;;;;;;;;34.00;30.00;;;;;7.84;55.62;99531.50;6210626;28;97618;-70
2022/01/26 17:12:13;;;;;;;;;34.60;30.00;;;;;7.58;56.00;99517.75;6206320;28;97150;-71
2022/01/26 17:26:11;;;;;;;;;36.00;30.00;;;;;7.61;55.93;99495.09;6225316;28;96559;-70
2022/01/26 18:13:11;;;;;;;;;32.40;29.00;;;;;7.82;55.61;99477.16;6199997;28;96791;-70
2022/01/26 18:16:26;;;;;;;;;35.20;29.60;;;;;8.07;55.49;99488.38;6197093;28;97445;-72
2022/01/26 18:26:25;;;;;;;;;29.60;28.00;;;;;8.11;55.35;99491.53;6193245;28;99911;-71
2022/01/26 18:32:55;;;;;;;;;31.00;28.00;;;;;8.31;54.94;99481.81;6211190;28;98187;-71
2022/01/26 18:39:57;;;;;;;;;31.80;27.80;;;;;8.20;54.73;99485.03;6206156;28;97082;-70
2022/01/26 18:46:49;;;;;;;;;30.00;27.00;;;;;8.19;54.57;99477.97;6211210;28;97603;-72
2022/01/26 18:49:52;;;;;;;;;29.40;28.00;;;;;8.09;54.88;99480.97;6211206;28;97519;-72
2022/01/26 18:52:55;;;;;;;;;32.00;29.40;;;;;7.96;54.91;99472.81;6204753;28;97524;-73
2022/01/26 18:56:00;;;;;;;;;34.50;28.00;;;;;7.84;54.86;99445.59;6205579;28;96567;-72
2022/01/26 18:59:09;;;;;;;;;29.60;27.20;;;;;7.92;55.01;99481.41;6211622;28;97465;-72
2022/01/26 19:02:13;;;;;;;;;32.40;30.00;;;;;7.95;55.10;99473.81;6208252;28;97423;-71
2022/01/26 19:05:37;;;;;;;;;36.25;29.50;;;;;8.01;54.72;99474.91;6204191;28;97497;-72
2022/01/26 19:08:41;;;;;;;;;31.00;28.60;;;;;7.90;54.90;99473.56;6194314;28;97346;-70
2022/01/26 19:11:46;;;;;;;;;32.25;28.50;;;;;7.95;54.50;99479.19;6202902;28;97734;-71
2022/01/26 19:14:53;;;;;;;;;32.00;28.00;;;;;8.04;54.61;99475.34;6199641;28;98898;-72
2022/01/26 19:18:01;;;;;;;;;35.00;30.75;;;;;8.06;54.43;99480.53;6193458;28;97444;-72
2022/01/26 19:21:12;;;;;;;;;30.00;28.00;;;;;8.02;54.54;99477.38;6223104;27;97539;-70
2022/01/26 19:27:43;;;;;;;;;35.80;29.80;;;;;8.10;54.12;99473.75;6211653;28;97744;-73
2022/01/26 19:44:13;;;;;;;;;24.20;22.20;;;;;8.29;53.36;99462.38;6192546;28;97530;-71
2022/01/26 19:50:50;;;;;;;;;23.50;21.50;;;;;8.40;53.12;99458.38;6167171;28;97980;-71
2022/01/26 19:53:53;;;;;;;;;29.40;25.20;;;;;8.17;53.41;99453.16;6205557;28;98112;-71
2022/01/26 19:56:57;;;;;;;;;29.40;27.00;;;;;8.14;53.56;99453.56;6200949;28;97654;-72
2022/01/26 20:00:02;;;;;;;;;27.50;25.00;;;;;8.23;53.38;99465.81;6195456;28;98021;-73